createdAt,value
2022-10-02T00:00:24.643Z,1518.9
2022-10-02T00:01:24.733Z,1518.8
2022-10-02T00:02:24.660Z,1518.9
2022-10-02T00:03:24.654Z,1518.9
2022-10-02T00:04:24.693Z,1518.8
2022-10-02T00:05:24.644Z,1519.2
2022-10-02T00:06:24.649Z,1519.1
2022-10-02T00:07:24.645Z,1518.8
2022-10-02T00:08:24.669Z,1518.7
2022-10-02T00:09:24.653Z,1518.6
2022-10-02T00:10:24.647Z,1518.7
2022-10-02T00:11:24.658Z,1518.8
2022-10-02T00:12:24.677Z,1518.7
2022-10-02T00:13:24.730Z,1518.7
2022-10-02T00:14:24.642Z,1518.8
2022-10-02T00:15:24.654Z,1518.8
2022-10-02T00:16:24.722Z,1518.9
2022-10-02T00:17:24.651Z,1518.8
2022-10-02T00:18:24.675Z,1518.8
2022-10-02T00:19:24.644Z,1519.3
2022-10-02T00:20:24.648Z,1519.3
2022-10-02T00:21:24.654Z,1519.2
2022-10-02T00:22:24.644Z,1519.3
2022-10-02T00:23:24.649Z,1518.8
2022-10-02T00:24:24.655Z,1519.2
2022-10-02T00:25:24.651Z,1519.1
2022-10-02T00:26:24.677Z,1518.9
2022-10-02T00:27:24.654Z,1519.2
2022-10-02T00:28:24.677Z,1519.3
2022-10-02T00:29:24.650Z,1519.6
2022-10-02T00:30:24.655Z,1519.4
2022-10-02T00:31:24.760Z,1519.6
2022-10-02T00:32:24.656Z,1519.5
2022-10-02T00:33:24.715Z,1519.2
2022-10-02T00:34:24.664Z,1519.1
2022-10-02T00:35:24.649Z,1519.1
2022-10-02T00:36:24.653Z,1519
2022-10-02T00:38:24.657Z,1519
2022-10-02T00:39:24.650Z,1519
2022-10-02T00:40:24.686Z,1519.2
2022-10-02T00:41:24.662Z,1519
2022-10-02T00:42:24.661Z,1519.1
2022-10-02T00:43:24.674Z,1519
2022-10-02T00:44:24.659Z,1519
2022-10-02T00:45:24.656Z,1519
2022-10-02T00:46:24.658Z,1519.2
2022-10-02T00:47:24.665Z,1519.4
2022-10-02T00:48:24.659Z,1519.1
2022-10-02T00:49:24.658Z,1519.2
2022-10-02T00:50:24.663Z,1519.2
2022-10-02T00:51:24.659Z,1519
2022-10-02T00:52:24.661Z,1519.1
2022-10-02T00:53:24.654Z,1519.1
2022-10-02T00:54:24.663Z,1519.4
2022-10-02T00:55:24.746Z,1519.1
2022-10-02T00:56:24.658Z,1519.5
2022-10-02T00:57:24.664Z,1519.6
2022-10-02T00:58:24.653Z,1519.7
2022-10-02T00:59:24.656Z,1519.9
2022-10-02T01:00:24.666Z,1519.6
2022-10-02T01:01:24.735Z,1519.9
2022-10-02T01:02:24.765Z,1520
2022-10-02T01:03:24.651Z,1520.1
2022-10-02T01:04:24.668Z,1520
2022-10-02T01:05:24.662Z,1520.3
2022-10-02T01:06:24.665Z,1520.4
2022-10-02T01:07:24.661Z,1520.5
2022-10-02T01:08:24.663Z,1520.5
2022-10-02T01:09:24.655Z,1520.4
2022-10-02T01:10:24.669Z,1520.9
2022-10-02T01:11:24.671Z,1520.6
2022-10-02T01:12:24.663Z,1520.9
2022-10-02T01:13:24.669Z,1520.9
2022-10-02T01:14:24.692Z,1520.9
2022-10-02T01:15:24.665Z,1521.1
2022-10-02T01:16:24.706Z,1521.2
2022-10-02T01:17:24.671Z,1521
2022-10-02T01:18:24.670Z,1521
2022-10-02T01:19:24.661Z,1521
2022-10-02T01:20:24.726Z,1521.1
2022-10-02T01:21:24.666Z,1521.1
2022-10-02T01:22:24.662Z,1521.1
2022-10-02T01:23:24.669Z,1521.6
2022-10-02T01:24:24.674Z,1521.6
2022-10-02T01:25:24.672Z,1521.5
2022-10-02T01:26:24.669Z,1521.7
2022-10-02T01:27:24.668Z,1521.7
2022-10-02T01:28:24.731Z,1521.4
2022-10-02T01:29:24.666Z,1521.5
2022-10-02T01:30:24.674Z,1521.7
2022-10-02T01:31:24.762Z,1522
2022-10-02T01:32:24.669Z,1522.2
2022-10-02T01:33:24.665Z,1522.2
2022-10-02T01:34:24.666Z,1522.1
2022-10-02T01:35:24.676Z,1522.1
2022-10-02T01:36:24.675Z,1522.3
2022-10-02T01:37:24.684Z,1522.3
2022-10-02T01:38:24.672Z,1521.9
2022-10-02T01:39:24.666Z,1522
2022-10-02T01:40:24.668Z,1521.7
2022-10-02T01:41:24.664Z,1521.9
2022-10-02T01:42:24.666Z,1522
2022-10-02T01:43:24.666Z,1521.6
2022-10-02T01:45:24.793Z,1521.7
2022-10-02T01:46:24.674Z,1521.7
2022-10-02T01:47:24.667Z,1521.7
2022-10-02T01:48:24.670Z,1522
2022-10-02T01:49:24.674Z,1522
2022-10-02T01:50:24.675Z,1521.7
2022-10-02T01:51:24.674Z,1522.1
2022-10-02T01:52:24.674Z,1521.9
2022-10-02T01:53:24.668Z,1522
2022-10-02T01:54:24.686Z,1521.9
2022-10-02T01:55:24.676Z,1522.1
2022-10-02T01:56:24.674Z,1522
2022-10-02T01:57:24.673Z,1522.2
2022-10-02T01:58:24.676Z,1522.2
2022-10-02T01:59:24.677Z,1522.4
2022-10-02T02:01:24.784Z,1522.3
2022-10-02T02:02:24.717Z,1522.3
2022-10-02T02:03:24.671Z,1522.3
2022-10-02T02:04:24.678Z,1522.2
2022-10-02T02:05:24.677Z,1522.5
2022-10-02T02:06:24.671Z,1522.5
2022-10-02T02:07:24.682Z,1522.4
2022-10-02T02:08:24.678Z,1522.6
2022-10-02T02:09:24.676Z,1522.4
2022-10-02T02:10:24.675Z,1522.3
2022-10-02T02:11:24.682Z,1522
2022-10-02T02:12:24.680Z,1521.9
2022-10-02T02:13:24.701Z,1522.1
2022-10-02T02:14:24.668Z,1522
2022-10-02T02:15:24.695Z,1522.5
2022-10-02T02:16:24.809Z,1522.6
2022-10-02T02:17:24.680Z,1522.5
2022-10-02T02:18:24.677Z,1522.6
2022-10-02T02:19:24.699Z,1522.1
2022-10-02T02:20:24.678Z,1522.3
2022-10-02T02:22:24.684Z,1522.3
2022-10-02T02:23:24.687Z,1522.3
2022-10-02T02:24:24.678Z,1522.3
2022-10-02T02:25:24.690Z,1522
2022-10-02T02:26:24.692Z,1521.7
2022-10-02T02:27:24.682Z,1521.9
2022-10-02T02:28:24.788Z,1521.9
2022-10-02T02:29:24.684Z,1521.8
2022-10-02T02:30:24.689Z,1521.9
2022-10-02T02:31:24.731Z,1521.5
2022-10-02T02:32:24.676Z,1521.7
2022-10-02T02:33:24.684Z,1521.3
2022-10-02T02:34:24.683Z,1521.5
2022-10-02T02:35:24.742Z,1521.3
2022-10-02T02:36:24.687Z,1521.2
2022-10-02T02:37:24.688Z,1521.2
2022-10-02T02:38:24.681Z,1521.3
2022-10-02T02:39:24.685Z,1521.2
2022-10-02T02:40:24.686Z,1521.2
2022-10-02T02:41:24.707Z,1521.3
2022-10-02T02:42:26.268Z,1521.4
2022-10-02T02:43:24.678Z,1521.2
2022-10-02T02:44:24.684Z,1521.2
2022-10-02T02:45:24.731Z,1521.3
2022-10-02T02:46:24.684Z,1521.6
2022-10-02T02:47:24.716Z,1521.3
2022-10-02T02:48:24.682Z,1521.5
2022-10-02T02:49:24.692Z,1521
2022-10-02T02:50:24.687Z,1521.2
2022-10-02T02:51:24.701Z,1521.1
2022-10-02T02:52:24.695Z,1521.3
2022-10-02T02:53:24.691Z,1521.2
2022-10-02T02:54:24.689Z,1521.5
2022-10-02T02:55:24.695Z,1521.2
2022-10-02T02:56:24.693Z,1521
2022-10-02T02:57:24.692Z,1520.9
2022-10-02T02:58:24.695Z,1520.8
2022-10-02T02:59:24.689Z,1521.1
2022-10-02T03:00:24.693Z,1521.2
2022-10-02T03:01:24.794Z,1521.1
2022-10-02T03:02:24.896Z,1521.6
2022-10-02T03:03:24.687Z,1521.4
2022-10-02T03:04:24.688Z,1521.5
2022-10-02T03:05:24.691Z,1521.5
2022-10-02T03:06:24.686Z,1521.5
2022-10-02T03:07:24.700Z,1521.4
2022-10-02T03:08:24.686Z,1521.5
2022-10-02T03:09:24.695Z,1521.4
2022-10-02T03:10:24.699Z,1521.5
2022-10-02T03:11:24.694Z,1521.3
2022-10-02T03:12:24.689Z,1521.3
2022-10-02T03:13:24.700Z,1521.4
2022-10-02T03:14:24.703Z,1521.7
2022-10-02T03:15:24.694Z,1521.7
2022-10-02T03:16:24.692Z,1521.5
2022-10-02T03:17:24.705Z,1521.6
2022-10-02T03:18:24.722Z,1521.9
2022-10-02T03:19:24.699Z,1521.7
2022-10-02T03:20:24.696Z,1521.7
2022-10-02T03:21:24.705Z,1521.8
2022-10-02T03:22:24.690Z,1521.5
2022-10-02T03:23:24.696Z,1521.5
2022-10-02T03:24:24.695Z,1521.6
2022-10-02T03:25:24.697Z,1521.4
2022-10-02T03:26:24.710Z,1521.7
2022-10-02T03:27:24.697Z,1521.7
2022-10-02T03:28:50.519Z,1521.7
2022-10-02T03:29:24.694Z,1521.4
2022-10-02T03:30:24.695Z,1521.7
2022-10-02T03:31:24.775Z,1521.9
2022-10-02T03:32:24.718Z,1521.9
2022-10-02T03:33:24.702Z,1521.5
2022-10-02T03:34:24.715Z,1521.6
2022-10-02T03:35:24.700Z,1521.5
2022-10-02T03:36:24.725Z,1521.7
2022-10-02T03:37:24.691Z,1521.6
2022-10-02T03:38:24.696Z,1521.7
2022-10-02T03:39:26.122Z,1521.7
2022-10-02T03:40:24.697Z,1521.7
2022-10-02T03:41:24.708Z,1521.8
2022-10-02T03:42:24.702Z,1521.7
2022-10-02T03:43:24.701Z,1521.7
2022-10-02T03:45:49.600Z,1521.9
2022-10-02T03:46:24.754Z,1521.8
2022-10-02T03:47:24.696Z,1522
2022-10-02T03:48:24.694Z,1521.9
2022-10-02T03:49:24.892Z,1522.1
2022-10-02T03:50:24.709Z,1522.3
2022-10-02T03:51:24.702Z,1522.2
2022-10-02T03:52:24.704Z,1521.9
2022-10-02T03:53:24.710Z,1521.6
2022-10-02T03:54:24.718Z,1521.6
2022-10-02T03:55:24.699Z,1521.8
2022-10-02T03:56:24.705Z,1521.7
2022-10-02T03:57:24.704Z,1521.8
2022-10-02T03:58:24.713Z,1522.1
2022-10-02T03:59:24.705Z,1522.2
2022-10-02T04:00:24.701Z,1522.1
2022-10-02T04:01:24.757Z,1522.1
2022-10-02T04:02:24.710Z,1522
2022-10-02T04:03:24.725Z,1522.1
2022-10-02T04:04:24.709Z,1522.4
2022-10-02T04:05:24.705Z,1522.1
2022-10-02T04:06:24.718Z,1522.1
2022-10-02T04:07:24.733Z,1521.8
2022-10-02T04:08:24.721Z,1522
2022-10-02T04:09:24.712Z,1522.2
2022-10-02T04:10:24.714Z,1522.1
2022-10-02T04:11:24.736Z,1522.4
2022-10-02T04:12:24.716Z,1522.2
2022-10-02T04:13:24.711Z,1522.2
2022-10-02T04:14:24.717Z,1522.1
2022-10-02T04:15:24.710Z,1522.6
2022-10-02T04:16:24.893Z,1522.6
2022-10-02T04:17:24.720Z,1522.6
2022-10-02T04:18:24.716Z,1522.6
2022-10-02T04:19:24.716Z,1522.8
2022-10-02T04:20:24.742Z,1522.5
2022-10-02T04:21:24.705Z,1522.5
2022-10-02T04:22:24.707Z,1522.6
2022-10-02T04:23:24.707Z,1522.7
2022-10-02T04:24:24.716Z,1522.6
2022-10-02T04:25:24.709Z,1522.6
2022-10-02T04:26:24.717Z,1522.6
2022-10-02T04:27:24.715Z,1522.9
2022-10-02T04:28:24.795Z,1522.7
2022-10-02T04:29:24.714Z,1522.5
2022-10-02T04:30:24.709Z,1522.7
2022-10-02T04:31:24.760Z,1522.5
2022-10-02T04:32:24.716Z,1522.7
2022-10-02T04:33:24.716Z,1522.6
2022-10-02T04:34:24.714Z,1522.5
2022-10-02T04:35:24.721Z,1522.3
2022-10-02T04:36:24.715Z,1522.3
2022-10-02T04:37:24.716Z,1522.4
2022-10-02T04:38:24.715Z,1522.6
2022-10-02T04:39:24.712Z,1522.6
2022-10-02T04:40:24.715Z,1522.5
2022-10-02T04:41:24.720Z,1522.8
2022-10-02T04:42:24.717Z,1522.9
2022-10-02T04:43:24.724Z,1522.8
2022-10-02T04:44:24.725Z,1522.5
2022-10-02T04:45:24.765Z,1522.5
2022-10-02T04:46:24.724Z,1522.8
2022-10-02T04:47:24.720Z,1522.7
2022-10-02T04:48:24.720Z,1523.2
2022-10-02T04:49:24.718Z,1523.1
2022-10-02T04:50:24.718Z,1522.9
2022-10-02T04:51:24.748Z,1522.8
2022-10-02T04:52:24.723Z,1522.9
2022-10-02T04:53:24.727Z,1522.8
2022-10-02T04:54:24.722Z,1522.6
2022-10-02T04:55:24.725Z,1522.7
2022-10-02T04:56:24.720Z,1522.4
2022-10-02T04:57:24.720Z,1522.5
2022-10-02T04:58:24.726Z,1522.5
2022-10-02T04:59:24.723Z,1522.5
2022-10-02T05:00:24.726Z,1522.9
2022-10-02T05:01:24.725Z,1523.3
2022-10-02T05:02:24.843Z,1523.1
2022-10-02T05:03:24.723Z,1523.1
2022-10-02T05:05:24.726Z,1523
2022-10-02T05:06:24.716Z,1523.1
2022-10-02T05:07:24.721Z,1523
2022-10-02T05:08:24.740Z,1522.8
2022-10-02T05:09:28.337Z,1522.8
2022-10-02T05:10:24.742Z,1522.9
2022-10-02T05:11:24.723Z,1522.9
2022-10-02T05:12:24.725Z,1522.9
2022-10-02T05:13:24.729Z,1522.7
2022-10-02T05:14:24.726Z,1522.7
2022-10-02T05:15:24.738Z,1522.5
2022-10-02T05:16:24.886Z,1522.4
2022-10-02T05:17:24.719Z,1522.5
2022-10-02T05:18:24.729Z,1522.5
2022-10-02T05:19:24.723Z,1523
2022-10-02T05:20:24.747Z,1522.8
2022-10-02T05:21:24.720Z,1522.7
2022-10-02T05:22:24.752Z,1522.7
2022-10-02T05:23:24.741Z,1522.5
2022-10-02T05:24:24.724Z,1522.4
2022-10-02T05:25:24.737Z,1522.5
2022-10-02T05:26:24.725Z,1522.4
2022-10-02T05:27:24.730Z,1522.8
2022-10-02T05:28:24.817Z,1522.5
2022-10-02T05:29:24.741Z,1522.4
2022-10-02T05:30:24.731Z,1522.1
2022-10-02T05:31:24.808Z,1522.3
2022-10-02T05:32:24.729Z,1522.4
2022-10-02T05:33:24.740Z,1522.6
2022-10-02T05:34:24.732Z,1522.5
2022-10-02T05:35:24.735Z,1522.5
2022-10-02T05:36:24.729Z,1522.6
2022-10-02T05:37:24.725Z,1522.6
2022-10-02T05:38:24.733Z,1522.1
2022-10-02T05:39:24.732Z,1522.2
2022-10-02T05:40:24.730Z,1522.3
2022-10-02T05:41:24.727Z,1522.8
2022-10-02T05:42:24.732Z,1522.7
2022-10-02T05:43:24.736Z,1522.7
2022-10-02T05:44:24.734Z,1522.6
2022-10-02T05:45:24.745Z,1522.6
2022-10-02T05:46:24.862Z,1522.9
2022-10-02T05:47:24.731Z,1522.9
2022-10-02T05:48:24.735Z,1522.9
2022-10-02T05:49:24.735Z,1522.7
2022-10-02T05:50:24.735Z,1522.7
2022-10-02T05:51:24.727Z,1522.7
2022-10-02T05:52:24.733Z,1522.2
2022-10-02T05:53:24.763Z,1522.3
2022-10-02T05:54:24.741Z,1522.1
2022-10-02T05:55:24.741Z,1522.3
2022-10-02T05:56:24.732Z,1522.4
2022-10-02T05:57:24.741Z,1522.2
2022-10-02T05:58:24.736Z,1522.3
2022-10-02T05:59:24.743Z,1522.4
2022-10-02T06:00:24.741Z,1522.4
2022-10-02T06:01:24.797Z,1522.7
2022-10-02T06:02:24.843Z,1522.5
2022-10-02T06:03:24.739Z,1522.7
2022-10-02T06:04:24.740Z,1522.7
2022-10-02T06:05:24.743Z,1522.9
2022-10-02T06:06:24.744Z,1522.7
2022-10-02T06:07:24.734Z,1522.8
2022-10-02T06:08:24.743Z,1522.9
2022-10-02T06:09:24.736Z,1522.6
2022-10-02T06:10:24.755Z,1522.6
2022-10-02T06:11:24.739Z,1522.4
2022-10-02T06:12:24.740Z,1522.9
2022-10-02T06:13:24.746Z,1522.6
2022-10-02T06:14:24.758Z,1522.8
2022-10-02T06:15:24.823Z,1522.8
2022-10-02T06:16:24.858Z,1522.8
2022-10-02T06:17:24.750Z,1523
2022-10-02T06:18:24.749Z,1523.2
2022-10-02T06:19:24.748Z,1522.9
2022-10-02T06:20:24.748Z,1522.9
2022-10-02T06:21:24.749Z,1523
2022-10-02T06:22:24.735Z,1523.2
2022-10-02T06:23:24.743Z,1523.3
2022-10-02T06:24:24.767Z,1523.2
2022-10-02T06:25:24.743Z,1523.3
2022-10-02T06:26:24.746Z,1523.6
2022-10-02T06:27:24.749Z,1523.7
2022-10-02T06:28:24.759Z,1523.6
2022-10-02T06:29:27.235Z,1523.8
2022-10-02T06:30:24.737Z,1524
2022-10-02T06:31:24.807Z,1523.4
2022-10-02T06:32:24.743Z,1523.4
2022-10-02T06:33:24.750Z,1523.5
2022-10-02T06:34:24.738Z,1523.4
2022-10-02T06:35:24.749Z,1523.2
2022-10-02T06:36:24.742Z,1523.4
2022-10-02T06:37:24.744Z,1523.2
2022-10-02T06:38:24.748Z,1523.3
2022-10-02T06:39:24.752Z,1523.4
2022-10-02T06:40:24.798Z,1523.7
2022-10-02T06:41:24.750Z,1523.7
2022-10-02T06:42:24.745Z,1523.5
2022-10-02T06:43:24.741Z,1523.2
2022-10-02T06:44:24.749Z,1523.7
2022-10-02T06:45:24.806Z,1523.5
2022-10-02T06:46:24.760Z,1523.2
2022-10-02T06:47:24.749Z,1523.3
2022-10-02T06:48:24.755Z,1523.5
2022-10-02T06:49:24.747Z,1523.6
2022-10-02T06:50:24.797Z,1523.5
2022-10-02T06:51:24.747Z,1523.6
2022-10-02T06:52:24.753Z,1523.7
2022-10-02T06:53:24.759Z,1523.8
2022-10-02T06:54:24.754Z,1523.9
2022-10-02T06:55:24.772Z,1523.7
2022-10-02T06:56:24.758Z,1523.9
2022-10-02T06:57:24.760Z,1523.7
2022-10-02T06:58:24.759Z,1523.7
2022-10-02T06:59:24.758Z,1523.7
2022-10-02T07:00:24.754Z,1524
2022-10-02T07:01:24.860Z,1523.9
2022-10-02T07:02:24.771Z,1523.9
2022-10-02T07:03:24.760Z,1523.9
2022-10-02T07:04:24.751Z,1524
2022-10-02T07:05:24.757Z,1523.9
2022-10-02T07:06:24.759Z,1523.9
2022-10-02T07:07:24.758Z,1524
2022-10-02T07:08:25.155Z,1524.3
2022-10-02T07:09:24.753Z,1524.3
2022-10-02T07:10:24.754Z,1524.4
2022-10-02T07:11:24.753Z,1524.4
2022-10-02T07:12:24.763Z,1524.5
2022-10-02T07:13:24.761Z,1524.5
2022-10-02T07:15:24.753Z,1524.8
2022-10-02T07:16:24.910Z,1524.9
2022-10-02T07:17:24.752Z,1524.6
2022-10-02T07:18:24.759Z,1524.4
2022-10-02T07:19:24.761Z,1524.4
2022-10-02T07:20:24.758Z,1524.8
2022-10-02T07:21:24.759Z,1524.8
2022-10-02T07:22:43.932Z,1524.9
2022-10-02T07:23:24.764Z,1525
2022-10-02T07:24:24.766Z,1525.1
2022-10-02T07:25:24.776Z,1525.1
2022-10-02T07:26:24.784Z,1524.9
2022-10-02T07:27:24.766Z,1525
2022-10-02T07:28:24.884Z,1525.1
2022-10-02T07:29:24.763Z,1525.1
2022-10-02T07:30:24.765Z,1525.2
2022-10-02T07:31:24.795Z,1525.2
2022-10-02T07:32:24.766Z,1525.3
2022-10-02T07:33:29.805Z,1525.4
2022-10-02T07:34:24.762Z,1525.4
2022-10-02T07:35:24.765Z,1525.1
2022-10-02T07:36:24.761Z,1525.1
2022-10-02T07:37:24.769Z,1525.3
2022-10-02T07:38:24.762Z,1525.6
2022-10-02T07:39:24.766Z,1525.4
2022-10-02T07:40:24.766Z,1525.4
2022-10-02T07:41:24.773Z,1525.5
2022-10-02T07:42:24.839Z,1525.7
2022-10-02T07:43:24.771Z,1525.6
2022-10-02T07:44:24.773Z,1525.5
2022-10-02T07:45:24.811Z,1525.7
2022-10-02T07:46:24.772Z,1525.8
2022-10-02T07:47:24.769Z,1525.8
2022-10-02T07:48:24.783Z,1526.1
2022-10-02T07:49:24.768Z,1526.2
2022-10-02T07:50:24.772Z,1525.9
2022-10-02T07:51:24.772Z,1525.9
2022-10-02T07:52:24.775Z,1525.8
2022-10-02T07:53:24.783Z,1525.6
2022-10-02T07:54:24.762Z,1525.5
2022-10-02T07:55:24.772Z,1525.6
2022-10-02T07:56:24.769Z,1525.6
2022-10-02T07:57:24.803Z,1525.6
2022-10-02T07:58:24.776Z,1525.7
2022-10-02T07:59:24.769Z,1525.9
2022-10-02T08:00:24.772Z,1526
2022-10-02T08:01:24.768Z,1525.9
2022-10-02T08:02:24.791Z,1526.1
2022-10-02T08:03:24.833Z,1526.5
2022-10-02T08:04:24.767Z,1526
2022-10-02T08:05:24.769Z,1526
2022-10-02T08:06:24.770Z,1526.2
2022-10-02T08:07:24.781Z,1526.3
2022-10-02T08:09:24.803Z,1526.2
2022-10-02T08:10:24.776Z,1526.2
2022-10-02T08:11:24.772Z,1526.6
2022-10-02T08:12:24.782Z,1526.7
2022-10-02T08:13:24.776Z,1526.7
2022-10-02T08:14:24.771Z,1526.7
2022-10-02T08:15:24.771Z,1526.7
2022-10-02T08:16:24.819Z,1526.8
2022-10-02T08:17:24.773Z,1527
2022-10-02T08:18:40.291Z,1527
2022-10-02T08:19:24.774Z,1527.2
2022-10-02T08:20:29.146Z,1527.2
2022-10-02T08:21:24.774Z,1527.3
2022-10-02T08:22:24.777Z,1527.4
2022-10-02T08:23:24.779Z,1527.3
2022-10-02T08:24:24.778Z,1527.8
2022-10-02T08:25:24.775Z,1527.2
2022-10-02T08:26:24.781Z,1527.1
2022-10-02T08:27:24.783Z,1527.2
2022-10-02T08:28:24.859Z,1527.1
2022-10-02T08:29:24.777Z,1527.2
2022-10-02T08:30:24.772Z,1527.5
2022-10-02T08:31:24.853Z,1527.4
2022-10-02T08:32:24.780Z,1527.6
2022-10-02T08:33:24.787Z,1527.6
2022-10-02T08:34:24.775Z,1527.6
2022-10-02T08:35:24.784Z,1527.7
2022-10-02T08:36:24.781Z,1528.1
2022-10-02T08:37:24.781Z,1528.1
2022-10-02T08:38:24.781Z,1528
2022-10-02T08:39:24.787Z,1527.9
2022-10-02T08:40:24.781Z,1528.3
2022-10-02T08:41:24.782Z,1528.2
2022-10-02T08:42:24.789Z,1528.5
2022-10-02T08:43:24.782Z,1528.5
2022-10-02T08:44:24.782Z,1528.5
2022-10-02T08:45:24.820Z,1528.6
2022-10-02T08:46:24.786Z,1528.8
2022-10-02T08:48:24.789Z,1528.9
2022-10-02T08:49:24.783Z,1528.9
2022-10-02T08:50:24.779Z,1529.2
2022-10-02T08:51:24.790Z,1529
2022-10-02T08:52:24.780Z,1529
2022-10-02T08:53:24.781Z,1528.9
2022-10-02T08:54:24.809Z,1528.8
2022-10-02T08:55:24.784Z,1528.5
2022-10-02T08:56:24.793Z,1528.5
2022-10-02T08:57:24.794Z,1528.2
2022-10-02T08:58:24.792Z,1528.2
2022-10-02T08:59:24.810Z,1527.9
2022-10-02T09:00:24.790Z,1528.2
2022-10-02T09:01:24.854Z,1528.3
2022-10-02T09:02:24.832Z,1528.7
2022-10-02T09:03:24.797Z,1528.8
2022-10-02T09:04:24.786Z,1528.9
2022-10-02T09:05:24.793Z,1529.2
2022-10-02T09:06:24.791Z,1529.4
2022-10-02T09:07:28.095Z,1529.4
2022-10-02T09:09:24.793Z,1529
2022-10-02T09:10:24.786Z,1529
2022-10-02T09:11:24.800Z,1528.9
2022-10-02T09:12:24.807Z,1528.8
2022-10-02T09:13:24.790Z,1528.7
2022-10-02T09:14:24.795Z,1528.1
2022-10-02T09:15:24.789Z,1528.3
2022-10-02T09:16:24.874Z,1528.4
2022-10-02T09:17:24.786Z,1528.3
2022-10-02T09:18:24.806Z,1528.4
2022-10-02T09:19:24.800Z,1528.6
2022-10-02T09:20:24.796Z,1528.7
2022-10-02T09:21:24.804Z,1528.6
2022-10-02T09:22:24.800Z,1528.6
2022-10-02T09:23:24.796Z,1528.6
2022-10-02T09:24:24.799Z,1528.6
2022-10-02T09:25:24.793Z,1528.2
2022-10-02T09:26:24.802Z,1528.1
2022-10-02T09:27:24.802Z,1528.7
2022-10-02T09:28:24.875Z,1528.5
2022-10-02T09:29:24.792Z,1528.8
2022-10-02T09:30:24.854Z,1529.1
2022-10-02T09:31:24.890Z,1529.5
2022-10-02T09:32:24.803Z,1529.3
2022-10-02T09:33:24.806Z,1529.3
2022-10-02T09:34:24.802Z,1529.8
2022-10-02T09:35:24.795Z,1529.3
2022-10-02T09:37:24.836Z,1529.2
2022-10-02T09:38:24.803Z,1528.9
2022-10-02T09:39:24.804Z,1528.8
2022-10-02T09:40:24.802Z,1528.4
2022-10-02T09:41:24.802Z,1528.3
2022-10-02T09:42:24.797Z,1527.9
2022-10-02T09:43:24.797Z,1528.2
2022-10-02T09:44:24.805Z,1528.5
2022-10-02T09:45:24.868Z,1528.7
2022-10-02T09:46:24.804Z,1528.4
2022-10-02T09:47:24.803Z,1528.4
2022-10-02T09:48:24.810Z,1528.8
2022-10-02T09:49:24.807Z,1529
2022-10-02T09:50:24.826Z,1529.2
2022-10-02T09:51:24.807Z,1529
2022-10-02T09:52:24.811Z,1529.1
2022-10-02T09:53:24.803Z,1529.4
2022-10-02T09:54:24.803Z,1528.9
2022-10-02T09:55:24.803Z,1529
2022-10-02T09:56:24.806Z,1529.1
2022-10-02T09:57:24.810Z,1529.3
2022-10-02T09:58:24.847Z,1529.5
2022-10-02T09:59:24.806Z,1529.3
2022-10-02T10:00:24.804Z,1529.2
2022-10-02T10:01:24.904Z,1529.1
2022-10-02T10:02:25.913Z,1529.2
2022-10-02T10:03:24.816Z,1529.3
2022-10-02T10:04:24.811Z,1529.8
2022-10-02T10:05:24.810Z,1530.5
2022-10-02T10:06:24.800Z,1530.4
2022-10-02T10:07:24.818Z,1530.4
2022-10-02T10:08:24.812Z,1530.6
2022-10-02T10:09:24.812Z,1530.9
2022-10-02T10:10:24.817Z,1531.1
2022-10-02T10:11:24.813Z,1531.2
2022-10-02T10:12:24.815Z,1531
2022-10-02T10:13:24.809Z,1530.5
2022-10-02T10:14:24.809Z,1530.7
2022-10-02T10:15:24.815Z,1530.8
2022-10-02T10:16:24.878Z,1530.7
2022-10-02T10:17:24.818Z,1531.1
2022-10-02T10:18:24.815Z,1530.4
2022-10-02T10:19:24.813Z,1530.3
2022-10-02T10:20:24.814Z,1530.4
2022-10-02T10:21:30.005Z,1530.9
2022-10-02T10:22:24.821Z,1530.7
2022-10-02T10:23:24.820Z,1530.4
2022-10-02T10:24:24.814Z,1530.3
2022-10-02T10:25:24.816Z,1530.5
2022-10-02T10:26:24.814Z,1530.6
2022-10-02T10:27:24.810Z,1530.4
2022-10-02T10:28:24.870Z,1530.6
2022-10-02T10:29:24.818Z,1530.5
2022-10-02T10:30:24.824Z,1530.9
2022-10-02T10:31:24.964Z,1531.1
2022-10-02T10:32:24.847Z,1531
2022-10-02T10:33:24.823Z,1530.9
2022-10-02T10:34:24.821Z,1530.6
2022-10-02T10:35:24.821Z,1530
2022-10-02T10:36:24.822Z,1530.1
2022-10-02T10:37:24.886Z,1530.1
2022-10-02T10:38:24.820Z,1530.1
2022-10-02T10:39:24.824Z,1530.3
2022-10-02T10:40:24.826Z,1530.5
2022-10-02T10:41:24.829Z,1530.7
2022-10-02T10:42:24.821Z,1530.3
2022-10-02T10:43:24.818Z,1530.4
2022-10-02T10:44:24.825Z,1530.7
2022-10-02T10:45:24.867Z,1530.4
2022-10-02T10:46:24.815Z,1530.7
2022-10-02T10:47:24.823Z,1531
2022-10-02T10:48:24.826Z,1531.3
2022-10-02T10:49:24.816Z,1530.6
2022-10-02T10:50:24.830Z,1530.6
2022-10-02T10:51:24.823Z,1530.7
2022-10-02T10:52:24.822Z,1530.6
2022-10-02T10:53:24.829Z,1530.8
2022-10-02T10:54:24.831Z,1530.5
2022-10-02T10:55:24.823Z,1530.5
2022-10-02T10:56:24.832Z,1530.8
2022-10-02T10:57:24.823Z,1530.7
2022-10-02T10:58:24.830Z,1530.8
2022-10-02T10:59:25.605Z,1530.6
2022-10-02T11:00:24.823Z,1530.4
2022-10-02T11:01:24.852Z,1530.3
2022-10-02T11:02:24.867Z,1531.1
2022-10-02T11:03:24.851Z,1531.7
2022-10-02T11:04:24.823Z,1532.2
2022-10-02T11:05:24.836Z,1532.3
2022-10-02T11:06:24.833Z,1532.2
2022-10-02T11:07:24.836Z,1532.7
2022-10-02T11:08:24.831Z,1533.4
2022-10-02T11:09:24.828Z,1533.2
2022-10-02T11:10:24.835Z,1532.4
2022-10-02T11:11:24.831Z,1532.5
2022-10-02T11:12:24.831Z,1532.5
2022-10-02T11:13:24.831Z,1532.1
2022-10-02T11:14:24.834Z,1531.9
2022-10-02T11:15:24.834Z,1531.9
2022-10-02T11:16:24.904Z,1531.1
2022-10-02T11:17:24.835Z,1531.3
2022-10-02T11:18:24.841Z,1531.4
2022-10-02T11:19:24.839Z,1531.8
2022-10-02T11:20:24.836Z,1532.5
2022-10-02T11:21:24.849Z,1533.2
2022-10-02T11:22:24.836Z,1533.7
2022-10-02T11:23:24.837Z,1534.6
2022-10-02T11:24:24.835Z,1534.8
2022-10-02T11:25:24.836Z,1535
2022-10-02T11:26:24.840Z,1535.8
2022-10-02T11:27:24.857Z,1535.8
2022-10-02T11:28:24.896Z,1536.1
2022-10-02T11:29:24.839Z,1536.2
2022-10-02T11:30:24.856Z,1536.2
2022-10-02T11:31:24.904Z,1535.5
2022-10-02T11:32:24.850Z,1535.5
2022-10-02T11:33:24.846Z,1534.6
2022-10-02T11:34:24.865Z,1534.4
2022-10-02T11:35:24.842Z,1534.1
2022-10-02T11:36:24.845Z,1534.1
2022-10-02T11:37:24.843Z,1534.1
2022-10-02T11:38:24.844Z,1534.1
2022-10-02T11:39:24.836Z,1534.1
2022-10-02T11:40:24.923Z,1534
2022-10-02T11:41:24.850Z,1534.4
2022-10-02T11:42:24.840Z,1534.6
2022-10-02T11:43:24.854Z,1534.5
2022-10-02T11:44:24.836Z,1534.2
2022-10-02T11:45:24.849Z,1533.8
2022-10-02T11:46:24.845Z,1533.6
2022-10-02T11:47:24.851Z,1533.6
2022-10-02T11:48:24.848Z,1533.4
2022-10-02T11:49:24.856Z,1533.8
2022-10-02T11:50:24.850Z,1533.8
2022-10-02T11:51:24.845Z,1534.1
2022-10-02T11:52:24.861Z,1534.4
2022-10-02T11:53:24.845Z,1534.5
2022-10-02T11:54:24.842Z,1534.9
2022-10-02T11:55:24.852Z,1535.1
2022-10-02T11:56:24.858Z,1535.6
2022-10-02T11:57:24.852Z,1535.5
2022-10-02T11:58:24.845Z,1535.6
2022-10-02T11:59:24.851Z,1535.5
2022-10-02T12:00:24.848Z,1536.1
2022-10-02T12:01:24.849Z,1535.5
2022-10-02T12:02:24.941Z,1535.4
2022-10-02T12:03:25.053Z,1535.7
2022-10-02T12:04:24.848Z,1535.8
2022-10-02T12:05:24.935Z,1535.8
2022-10-02T12:06:24.869Z,1535.5
2022-10-02T12:07:24.849Z,1535.2
2022-10-02T12:08:24.885Z,1535
2022-10-02T12:09:24.850Z,1535.2
2022-10-02T12:10:24.860Z,1535.2
2022-10-02T12:11:24.861Z,1535.3
2022-10-02T12:12:27.844Z,1535
2022-10-02T12:13:24.853Z,1534.5
2022-10-02T12:14:24.859Z,1534.6
2022-10-02T12:15:24.853Z,1535
2022-10-02T12:16:24.921Z,1534.4
2022-10-02T12:17:24.851Z,1534.7
2022-10-02T12:18:24.856Z,1534.3
2022-10-02T12:19:24.855Z,1534.5
2022-10-02T12:20:24.860Z,1534.5
2022-10-02T12:21:24.859Z,1534.6
2022-10-02T12:22:24.853Z,1534.1
2022-10-02T12:23:24.864Z,1534.5
2022-10-02T12:24:24.857Z,1534.8
2022-10-02T12:25:24.852Z,1534.8
2022-10-02T12:26:24.865Z,1534.8
2022-10-02T12:27:24.859Z,1534.8
2022-10-02T12:29:24.858Z,1534.4
2022-10-02T12:30:24.866Z,1534.2
2022-10-02T12:31:24.911Z,1534.6
2022-10-02T12:32:24.875Z,1534.2
2022-10-02T12:33:24.879Z,1534
2022-10-02T12:34:24.860Z,1534.3
2022-10-02T12:35:24.859Z,1534.3
2022-10-02T12:36:24.891Z,1534.5
2022-10-02T12:37:24.945Z,1535
2022-10-02T12:38:24.866Z,1535.1
2022-10-02T12:39:24.860Z,1535.2
2022-10-02T12:40:24.870Z,1534.6
2022-10-02T12:41:24.872Z,1534
2022-10-02T12:42:24.933Z,1533.7
2022-10-02T12:43:24.864Z,1533.7
2022-10-02T12:44:24.862Z,1533.4